Time;durP1;ratioP1;P1;durP2;ratioP2;P2;SDS_P1;SDS_P2;PMS_P1;PMS_P2;Temp;Humidity;BMP_temperature;BMP_pressure;BME280_temperature;BME280_humidity;BME280_pressure;Samples;Min_cycle;Max_cycle;Signal;HPM_P1;HPM_P2
2021/12/28 00:02:15;;;;;;;25.50;16.40;;;;;;;;;;5051550;28;20072;-64
2021/12/28 00:04:41;;;;;;;24.08;15.35;;;;;;;;;;5051964;28;20056;-64
2021/12/28 00:07:07;;;;;;;23.52;15.52;;;;;;;;;;5051758;28;20049;-64
2021/12/28 00:09:33;;;;;;;22.60;15.43;;;;;;;;;;5051182;28;20033;-64
2021/12/28 00:11:59;;;;;;;27.02;15.93;;;;;;;;;;5052036;28;20660;-64
2021/12/28 00:14:34;;;;;;;24.38;15.55;;;;;;;;;;5051777;28;20040;-64
2021/12/28 00:19:44;;;;;;;24.90;16.27;;;;;;;;;;5051172;28;20044;-64
2021/12/28 00:22:10;;;;;;;25.80;16.73;;;;;;;;;;5051844;28;20041;-64
2021/12/28 00:24:37;;;;;;;28.80;17.13;;;;;;;;;;5050802;28;20223;-64
2021/12/28 00:27:04;;;;;;;28.70;17.05;;;;;;;;;;5067777;28;20150;-64
2021/12/28 00:29:30;;;;;;;26.10;17.23;;;;;;;;;;5071582;28;20029;-64
2021/12/28 00:31:56;;;;;;;28.50;18.08;;;;;;;;;;5071361;28;20075;-64
2021/12/28 00:34:22;;;;;;;28.17;18.35;;;;;;;;;;5071774;28;20093;-64
2021/12/28 00:36:48;;;;;;;27.60;17.80;;;;;;;;;;5071678;28;20044;-64
2021/12/28 00:39:14;;;;;;;30.38;19.77;;;;;;;;;;5070917;28;20074;-64
2021/12/28 00:41:41;;;;;;;32.45;20.15;;;;;;;;;;5071783;28;20090;-64
2021/12/28 00:44:07;;;;;;;38.70;22.63;;;;;;;;;;5071697;28;20036;-64
2021/12/28 00:46:33;;;;;;;36.42;21.75;;;;;;;;;;5070854;28;20040;-64
2021/12/28 00:48:59;;;;;;;39.17;22.98;;;;;;;;;;5071550;28;20040;-64
2021/12/28 00:51:26;;;;;;;40.10;23.13;;;;;;;;;;5071346;28;20040;-64
2021/12/28 00:53:52;;;;;;;42.85;23.10;;;;;;;;;;5070765;28;20382;-64
2021/12/28 00:56:18;;;;;;;40.97;23.98;;;;;;;;;;5071388;28;20040;-64
2021/12/28 00:58:44;;;;;;;43.17;24.52;;;;;;;;;;5071465;28;20479;-64
2021/12/28 01:01:10;;;;;;;44.38;24.02;;;;;;;;;;5070834;28;20051;-64
2021/12/28 01:03:38;;;;;;;43.83;25.88;;;;;;;;;;5071461;28;20138;-64
2021/12/28 01:06:04;;;;;;;45.67;26.25;;;;;;;;;;5071349;28;20056;-64
2021/12/28 01:08:31;;;;;;;47.05;26.50;;;;;;;;;;5070709;28;20032;-64
2021/12/28 01:10:58;;;;;;;46.88;27.70;;;;;;;;;;5071339;28;20043;-64
2021/12/28 01:13:24;;;;;;;42.15;24.77;;;;;;;;;;5071026;28;20089;-64
2021/12/28 01:15:51;;;;;;;50.92;26.95;;;;;;;;;;5070575;28;20494;-64
2021/12/28 01:18:18;;;;;;;45.25;26.42;;;;;;;;;;5071314;28;20485;-64
2021/12/28 01:20:44;;;;;;;47.25;26.63;;;;;;;;;;5071441;28;20044;-64
2021/12/28 01:23:11;;;;;;;53.70;28.10;;;;;;;;;;5070154;28;20472;-64
2021/12/28 01:25:37;;;;;;;50.08;27.73;;;;;;;;;;5066666;28;20459;-64
2021/12/28 01:28:04;;;;;;;56.88;28.20;;;;;;;;;;5051143;28;20032;-64
2021/12/28 01:30:30;;;;;;;53.42;27.10;;;;;;;;;;5051642;28;20041;-64
2021/12/28 01:32:59;;;;;;;54.40;27.55;;;;;;;;;;5054894;28;20073;-64
2021/12/28 01:35:26;;;;;;;52.92;27.83;;;;;;;;;;5054815;28;20059;-64
2021/12/28 01:37:52;;;;;;;55.10;29.75;;;;;;;;;;5054423;28;20124;-64
2021/12/28 01:40:21;;;;;;;53.65;28.73;;;;;;;;;;5054921;28;20144;-64
2021/12/28 01:43:06;;;;;;;55.10;29.73;;;;;;;;;;5054702;28;20131;-64
2021/12/28 01:45:32;;;;;;;58.13;31.20;;;;;;;;;;5054075;28;20041;-64
2021/12/28 01:47:58;;;;;;;62.80;31.65;;;;;;;;;;5054516;28;20357;-64
2021/12/28 01:50:24;;;;;;;60.80;30.15;;;;;;;;;;5054613;28;20037;-64
2021/12/28 01:52:50;;;;;;;67.57;30.35;;;;;;;;;;5053843;28;20097;-64
2021/12/28 01:55:17;;;;;;;62.03;31.25;;;;;;;;;;5054533;28;20037;-64
2021/12/28 01:57:44;;;;;;;60.90;30.98;;;;;;;;;;5054460;28;20033;-64
2021/12/28 02:00:11;;;;;;;58.55;29.20;;;;;;;;;;5053857;28;20163;-64
2021/12/28 02:02:37;;;;;;;65.00;31.25;;;;;;;;;;5054523;28;20033;-64
2021/12/28 02:05:03;;;;;;;58.45;31.77;;;;;;;;;;5054532;28;20039;-64
2021/12/28 02:07:29;;;;;;;64.82;30.95;;;;;;;;;;5053680;28;20072;-64
2021/12/28 02:09:55;;;;;;;64.30;30.50;;;;;;;;;;5054331;28;20041;-64
2021/12/28 02:12:22;;;;;;;58.28;29.95;;;;;;;;;;5054174;28;20481;-64
2021/12/28 02:14:48;;;;;;;68.93;31.92;;;;;;;;;;5053602;28;20060;-64
2021/12/28 02:17:14;;;;;;;67.65;31.90;;;;;;;;;;5054201;28;20045;-64
2021/12/28 02:19:41;;;;;;;65.22;31.50;;;;;;;;;;5054268;28;20067;-64
2021/12/28 02:22:08;;;;;;;61.92;30.50;;;;;;;;;;5053488;28;20049;-64
2021/12/28 02:24:34;;;;;;;66.78;31.58;;;;;;;;;;5053794;28;20434;-64
2021/12/28 02:27:00;;;;;;;72.10;31.92;;;;;;;;;;5069613;28;20052;-64
2021/12/28 02:29:26;;;;;;;67.32;31.70;;;;;;;;;;5073270;28;20387;-64
2021/12/28 02:31:55;;;;;;;81.55;32.90;;;;;;;;;;5073896;28;20044;-64
2021/12/28 02:34:24;;;;;;;68.35;29.83;;;;;;;;;;5073749;28;20398;-64
2021/12/28 02:36:51;;;;;;;66.85;31.75;;;;;;;;;;5073283;28;20047;-64
2021/12/28 02:39:17;;;;;;;70.07;30.55;;;;;;;;;;5074047;28;20060;-64
2021/12/28 02:41:43;;;;;;;79.78;32.00;;;;;;;;;;5072916;28;20403;-64
2021/12/28 02:44:09;;;;;;;70.60;33.40;;;;;;;;;;5072944;28;20738;-64
2021/12/28 02:46:35;;;;;;;80.78;33.20;;;;;;;;;;5073652;28;20083;-64
2021/12/28 02:49:01;;;;;;;68.40;32.13;;;;;;;;;;5073768;28;20116;-64
2021/12/28 02:51:28;;;;;;;70.30;32.60;;;;;;;;;;5073002;28;20468;-64
2021/12/28 02:53:54;;;;;;;83.82;34.55;;;;;;;;;;5073654;28;20037;-64
2021/12/28 02:56:20;;;;;;;74.25;32.70;;;;;;;;;;5073714;28;20040;-64
2021/12/28 02:58:51;;;;;;;76.10;32.38;;;;;;;;;;5072683;28;20041;-64
2021/12/28 03:01:25;;;;;;;82.70;32.90;;;;;;;;;;5073374;28;20120;-64
2021/12/28 03:03:56;;;;;;;85.07;33.88;;;;;;;;;;5073472;28;20040;-64
2021/12/28 03:06:23;;;;;;;78.90;34.08;;;;;;;;;;5072542;28;20074;-64
2021/12/28 03:08:53;;;;;;;71.40;32.97;;;;;;;;;;5073345;28;20119;-64
2021/12/28 03:11:19;;;;;;;86.07;33.47;;;;;;;;;;5073318;28;20127;-64
2021/12/28 03:13:47;;;;;;;78.50;32.45;;;;;;;;;;5070941;28;20045;-64
2021/12/28 03:16:14;;;;;;;83.97;33.60;;;;;;;;;;5072994;28;20185;-64
2021/12/28 03:18:40;;;;;;;86.90;33.22;;;;;;;;;;5072700;28;20076;-64
2021/12/28 03:21:07;;;;;;;85.80;32.95;;;;;;;;;;5072475;28;20075;-64
2021/12/28 03:23:34;;;;;;;80.75;33.65;;;;;;;;;;5072740;28;20503;-64
2021/12/28 03:26:00;;;;;;;78.55;32.20;;;;;;;;;;5065569;28;20045;-64
2021/12/28 03:28:30;;;;;;;80.55;33.08;;;;;;;;;;5052105;28;20048;-64
2021/12/28 03:30:57;;;;;;;77.80;31.17;;;;;;;;;;5052798;28;20710;-64
2021/12/28 03:33:26;;;;;;;84.05;33.45;;;;;;;;;;5051377;28;20053;-64
2021/12/28 03:35:52;;;;;;;71.18;29.80;;;;;;;;;;5052130;28;20045;-64
2021/12/28 03:38:18;;;;;;;69.97;30.48;;;;;;;;;;5052627;28;20041;-64
2021/12/28 03:40:45;;;;;;;72.15;31.58;;;;;;;;;;5052469;28;20049;-64
2021/12/28 03:43:11;;;;;;;70.85;31.30;;;;;;;;;;5051830;28;20040;-64
2021/12/28 03:45:38;;;;;;;67.53;30.10;;;;;;;;;;5052487;28;20078;-64
2021/12/28 03:48:04;;;;;;;71.55;29.83;;;;;;;;;;5052301;28;20095;-64
2021/12/28 03:50:31;;;;;;;71.40;30.63;;;;;;;;;;5051877;28;20033;-64
2021/12/28 03:52:57;;;;;;;66.30;30.27;;;;;;;;;;5052184;28;20045;-64
2021/12/28 03:55:24;;;;;;;69.10;29.35;;;;;;;;;;5052341;28;20471;-64
2021/12/28 03:57:50;;;;;;;65.05;27.95;;;;;;;;;;5051570;28;20394;-64
2021/12/28 04:00:19;;;;;;;80.03;31.23;;;;;;;;;;5052187;28;20523;-64
2021/12/28 04:02:46;;;;;;;78.03;31.08;;;;;;;;;;5052325;28;20041;-64
2021/12/28 04:05:12;;;;;;;73.82;31.48;;;;;;;;;;5052133;28;20073;-64
2021/12/28 04:07:39;;;;;;;71.00;31.73;;;;;;;;;;5052018;28;20041;-64
2021/12/28 04:10:07;;;;;;;74.32;32.28;;;;;;;;;;5052194;28;20455;-64
2021/12/28 04:12:34;;;;;;;68.43;29.88;;;;;;;;;;5051796;28;20079;-64
2021/12/28 04:15:00;;;;;;;72.72;30.58;;;;;;;;;;5051556;28;20471;-64
2021/12/28 04:17:27;;;;;;;71.10;30.60;;;;;;;;;;5051967;28;20434;-64
2021/12/28 04:19:53;;;;;;;74.70;30.80;;;;;;;;;;5052024;28;20145;-64
2021/12/28 04:22:20;;;;;;;65.85;29.70;;;;;;;;;;5050910;28;20446;-64
2021/12/28 04:24:46;;;;;;;62.10;28.95;;;;;;;;;;5051994;28;20129;-64
2021/12/28 04:27:12;;;;;;;61.15;29.30;;;;;;;;;;5068985;28;20052;-64
2021/12/28 04:29:38;;;;;;;57.85;28.15;;;;;;;;;;5071199;28;20040;-64
2021/12/28 04:32:05;;;;;;;59.03;27.15;;;;;;;;;;5071856;28;20036;-64
2021/12/28 04:34:31;;;;;;;56.75;27.05;;;;;;;;;;5071732;28;20050;-64
2021/12/28 04:36:57;;;;;;;58.75;27.52;;;;;;;;;;5071217;28;20379;-64
2021/12/28 04:39:23;;;;;;;54.45;27.02;;;;;;;;;;5071664;28;20052;-64
2021/12/28 04:41:49;;;;;;;56.40;27.38;;;;;;;;;;5071771;28;20037;-64
2021/12/28 04:44:22;;;;;;;58.92;26.58;;;;;;;;;;5070913;28;20087;-64
2021/12/28 04:46:48;;;;;;;55.60;27.10;;;;;;;;;;5071357;28;20044;-64
2021/12/28 04:49:16;;;;;;;55.80;26.30;;;;;;;;;;5071636;28;20048;-64
2021/12/28 04:51:42;;;;;;;53.20;27.17;;;;;;;;;;5070923;28;20491;-64
2021/12/28 04:54:12;;;;;;;51.60;25.38;;;;;;;;;;5071449;28;20360;-64
2021/12/28 04:56:38;;;;;;;52.78;26.60;;;;;;;;;;5071116;28;20052;-64
2021/12/28 04:59:04;;;;;;;51.90;25.73;;;;;;;;;;5070911;28;20135;-64
2021/12/28 05:01:30;;;;;;;48.05;24.70;;;;;;;;;;5071476;28;20082;-64
2021/12/28 05:03:56;;;;;;;51.42;24.77;;;;;;;;;;5070984;28;20609;-64
2021/12/28 05:06:22;;;;;;;48.13;23.02;;;;;;;;;;5073553;28;20124;-64
2021/12/28 05:08:48;;;;;;;44.35;23.83;;;;;;;;;;5074294;28;20162;-64
2021/12/28 05:11:14;;;;;;;52.95;23.05;;;;;;;;;;5075553;28;20078;-64
2021/12/28 05:13:41;;;;;;;44.28;23.17;;;;;;;;;;5074639;28;20059;-64
2021/12/28 05:16:07;;;;;;;46.45;23.10;;;;;;;;;;5075485;28;20503;-67
2021/12/28 05:18:33;;;;;;;46.58;22.95;;;;;;;;;;5074984;28;20036;-64
2021/12/28 05:20:59;;;;;;;48.72;22.73;;;;;;;;;;5074759;28;20040;-64
2021/12/28 05:23:25;;;;;;;44.20;22.85;;;;;;;;;;5075008;28;20052;-64
2021/12/28 05:25:51;;;;;;;43.53;22.60;;;;;;;;;;5069036;28;20052;-64
2021/12/28 05:28:17;;;;;;;43.63;21.67;;;;;;;;;;5054537;28;20049;-64
2021/12/28 05:30:43;;;;;;;47.80;22.33;;;;;;;;;;5054842;28;20041;-64
2021/12/28 05:33:09;;;;;;;48.53;22.08;;;;;;;;;;5055049;28;20465;-64
2021/12/28 05:35:36;;;;;;;43.80;21.95;;;;;;;;;;5054385;28;20048;-64
2021/12/28 05:38:02;;;;;;;44.65;20.98;;;;;;;;;;5054946;28;20668;-64
2021/12/28 05:40:28;;;;;;;40.55;20.00;;;;;;;;;;5055086;28;20040;-64
2021/12/28 05:42:54;;;;;;;43.50;20.25;;;;;;;;;;5053964;28;20041;-64
2021/12/28 05:45:20;;;;;;;43.88;21.15;;;;;;;;;;5054893;28;20452;-64
2021/12/28 05:47:46;;;;;;;38.30;19.70;;;;;;;;;;5054785;28;20064;-64
2021/12/28 05:50:12;;;;;;;39.85;19.70;;;;;;;;;;5053755;28;20037;-64
2021/12/28 05:52:38;;;;;;;43.05;20.27;;;;;;;;;;5054639;28;20045;-64
2021/12/28 05:55:05;;;;;;;40.85;19.83;;;;;;;;;;5054571;28;20082;-64
2021/12/28 05:57:31;;;;;;;42.72;20.02;;;;;;;;;;5054061;28;20044;-64
2021/12/28 05:59:58;;;;;;;39.88;19.13;;;;;;;;;;5054586;28;20094;-64
2021/12/28 06:02:24;;;;;;;40.28;20.30;;;;;;;;;;5054586;28;20136;-64
2021/12/28 06:04:50;;;;;;;45.85;20.52;;;;;;;;;;5053464;28;20069;-64
2021/12/28 06:07:16;;;;;;;41.83;19.35;;;;;;;;;;5054399;28;20696;-64
2021/12/28 06:09:42;;;;;;;38.83;19.92;;;;;;;;;;5054406;28;20069;-64
2021/12/28 06:12:08;;;;;;;43.55;20.38;;;;;;;;;;5053483;28;20063;-64
2021/12/28 06:14:34;;;;;;;40.47;19.42;;;;;;;;;;5054265;28;20095;-64
2021/12/28 06:17:00;;;;;;;40.08;18.67;;;;;;;;;;5054270;28;20084;-64
2021/12/28 06:19:26;;;;;;;42.38;18.90;;;;;;;;;;5053562;28;20455;-64
2021/12/28 06:21:52;;;;;;;42.70;18.80;;;;;;;;;;5054290;28;20037;-64
2021/12/28 06:24:19;;;;;;;36.40;18.48;;;;;;;;;;5053436;28;20506;-64
2021/12/28 06:26:45;;;;;;;36.55;17.73;;;;;;;;;;5066875;28;20040;-64
2021/12/28 06:29:11;;;;;;;34.42;18.52;;;;;;;;;;5074036;28;20033;-64
2021/12/28 06:31:37;;;;;;;31.77;16.50;;;;;;;;;;5074221;28;20129;-64
2021/12/28 06:34:06;;;;;;;31.98;17.63;;;;;;;;;;5073411;28;20039;-64
2021/12/28 06:36:32;;;;;;;33.00;16.75;;;;;;;;;;5074093;28;20527;-64
2021/12/28 06:38:59;;;;;;;30.90;16.80;;;;;;;;;;5073926;28;20040;-64
2021/12/28 06:41:25;;;;;;;32.40;16.92;;;;;;;;;;5073416;28;20505;-64
2021/12/28 06:43:51;;;;;;;30.35;15.93;;;;;;;;;;5073669;28;20104;-64
2021/12/28 06:46:18;;;;;;;29.67;15.65;;;;;;;;;;5073480;28;20080;-64
2021/12/28 06:48:44;;;;;;;29.38;15.73;;;;;;;;;;5071764;28;20494;-64
2021/12/28 06:51:11;;;;;;;30.02;15.43;;;;;;;;;;5073285;28;20441;-64
2021/12/28 06:53:38;;;;;;;31.45;14.18;;;;;;;;;;5071593;28;20044;-64
2021/12/28 06:56:05;;;;;;;27.80;14.30;;;;;;;;;;5072202;28;20055;-64
2021/12/28 06:58:31;;;;;;;30.52;15.60;;;;;;;;;;5073219;28;20049;-64
2021/12/28 07:00:57;;;;;;;29.05;14.77;;;;;;;;;;5073047;28;20094;-64
2021/12/28 07:03:23;;;;;;;27.02;14.40;;;;;;;;;;5072621;28;20539;-64
2021/12/28 07:05:49;;;;;;;27.73;14.20;;;;;;;;;;5073231;28;20040;-64
2021/12/28 07:08:16;;;;;;;29.70;13.93;;;;;;;;;;5073078;28;20047;-64
2021/12/28 07:10:42;;;;;;;25.67;13.57;;;;;;;;;;5062850;28;20037;-64
2021/12/28 07:13:08;;;;;;;25.08;12.75;;;;;;;;;;5070903;28;20040;-64
2021/12/28 07:15:35;;;;;;;26.17;13.57;;;;;;;;;;5072731;28;20067;-64
2021/12/28 07:18:01;;;;;;;28.05;12.50;;;;;;;;;;5054785;28;20091;-64
2021/12/28 07:20:27;;;;;;;27.45;13.02;;;;;;;;;;5065192;28;20039;-64
2021/12/28 07:22:53;;;;;;;31.27;14.68;;;;;;;;;;5071990;28;20457;-64
2021/12/28 07:25:19;;;;;;;33.42;17.17;;;;;;;;;;5071841;28;20130;-64
2021/12/28 07:27:45;;;;;;;42.25;19.88;;;;;;;;;;5072099;28;20036;-64
2021/12/28 07:30:12;;;;;;;37.30;17.88;;;;;;;;;;5072552;28;20368;-64
2021/12/28 07:32:39;;;;;;;28.45;13.88;;;;;;;;;;5068086;28;20430;-64
2021/12/28 07:35:05;;;;;;;23.40;12.10;;;;;;;;;;5071487;28;20457;-64
2021/12/28 07:37:31;;;;;;;28.13;12.35;;;;;;;;;;5071591;28;20044;-64
2021/12/28 07:39:57;;;;;;;24.05;12.70;;;;;;;;;;5070638;28;20063;-64
2021/12/28 07:42:23;;;;;;;21.00;10.68;;;;;;;;;;5070865;28;20052;-64
2021/12/28 07:44:49;;;;;;;21.60;11.45;;;;;;;;;;5068271;28;20048;-64
2021/12/28 07:47:16;;;;;;;19.10;11.38;;;;;;;;;;5070597;28;20576;-64
2021/12/28 07:49:42;;;;;;;22.83;10.68;;;;;;;;;;5061015;28;20043;-64
2021/12/28 07:52:08;;;;;;;25.05;11.00;;;;;;;;;;5065268;28;20036;-64
2021/12/28 07:54:35;;;;;;;27.67;12.07;;;;;;;;;;5071033;28;20086;-64
2021/12/28 07:57:01;;;;;;;21.80;11.25;;;;;;;;;;5070450;28;20040;-64
2021/12/28 07:59:27;;;;;;;21.50;10.98;;;;;;;;;;5070764;28;20157;-64
2021/12/28 08:01:53;;;;;;;21.35;10.50;;;;;;;;;;5071205;28;20115;-64
2021/12/28 08:04:19;;;;;;;23.80;10.40;;;;;;;;;;5059671;28;20646;-64
2021/12/28 08:06:45;;;;;;;20.58;10.52;;;;;;;;;;5065502;28;20054;-64
2021/12/28 08:09:11;;;;;;;22.92;10.15;;;;;;;;;;5074791;28;20080;-62
2021/12/28 08:11:37;;;;;;;22.17;10.70;;;;;;;;;;5068287;28;20055;-62
2021/12/28 08:14:04;;;;;;;22.45;10.45;;;;;;;;;;5071344;28;20425;-62
2021/12/28 08:16:31;;;;;;;19.63;9.45;;;;;;;;;;5071577;28;20044;-62
2021/12/28 08:18:57;;;;;;;19.08;9.90;;;;;;;;;;5072060;28;20494;-62
2021/12/28 08:21:23;;;;;;;21.77;10.75;;;;;;;;;;5071081;28;20040;-62
2021/12/28 08:23:49;;;;;;;19.10;9.68;;;;;;;;;;5071004;28;20053;-62
2021/12/28 08:26:16;;;;;;;20.13;9.25;;;;;;;;;;5070474;28;20070;-62
2021/12/28 08:28:43;;;;;;;24.80;9.23;;;;;;;;;;5070723;28;20097;-62
2021/12/28 08:31:09;;;;;;;22.08;9.23;;;;;;;;;;5075306;28;20032;-62
2021/12/28 08:33:35;;;;;;;19.15;8.57;;;;;;;;;;5071130;28;20218;-61
2021/12/28 08:36:01;;;;;;;20.98;9.32;;;;;;;;;;5071826;28;20086;-62
2021/12/28 08:38:27;;;;;;;17.42;8.90;;;;;;;;;;5072846;28;20511;-62
2021/12/28 08:40:54;;;;;;;22.10;9.50;;;;;;;;;;5068180;28;20037;-62
2021/12/28 08:43:20;;;;;;;21.90;8.85;;;;;;;;;;5074783;28;20098;-64
2021/12/28 08:45:46;;;;;;;19.42;9.45;;;;;;;;;;5067623;28;20052;-63
2021/12/28 08:48:12;;;;;;;19.38;8.85;;;;;;;;;;5058707;28;20071;-63
2021/12/28 08:50:39;;;;;;;22.33;9.13;;;;;;;;;;5071620;28;20036;-63
2021/12/28 08:53:06;;;;;;;23.00;9.40;;;;;;;;;;5071648;28;20037;-62
2021/12/28 08:55:32;;;;;;;23.95;9.32;;;;;;;;;;5072186;28;20037;-63
2021/12/28 08:57:58;;;;;;;22.67;8.68;;;;;;;;;;5072704;28;20075;-62
2021/12/28 09:00:30;;;;;;;15.55;8.45;;;;;;;;;;5070555;28;20043;-63
2021/12/28 09:02:57;;;;;;;19.05;8.32;;;;;;;;;;5058274;28;20075;-63
2021/12/28 09:05:23;;;;;;;20.15;8.20;;;;;;;;;;5068686;28;20036;-63
2021/12/28 09:07:50;;;;;;;16.83;8.43;;;;;;;;;;5069184;28;20060;-63
2021/12/28 09:10:16;;;;;;;21.13;7.80;;;;;;;;;;5068903;28;20047;-59
2021/12/28 09:12:42;;;;;;;16.70;8.10;;;;;;;;;;5071859;28;20044;-60
2021/12/28 09:15:09;;;;;;;21.42;8.57;;;;;;;;;;5074111;28;20036;-59
2021/12/28 09:17:35;;;;;;;17.35;8.13;;;;;;;;;;5070712;28;20044;-59
2021/12/28 09:20:02;;;;;;;22.10;7.82;;;;;;;;;;5070871;28;20041;-61
2021/12/28 09:22:28;;;;;;;19.13;7.47;;;;;;;;;;5069828;28;20078;-59
2021/12/28 09:24:54;;;;;;;19.80;7.55;;;;;;;;;;5069707;28;20071;-61
2021/12/28 09:27:20;;;;;;;19.58;7.60;;;;;;;;;;5073726;28;20397;-61
2021/12/28 09:29:46;;;;;;;20.65;8.00;;;;;;;;;;5070083;28;20040;-60
2021/12/28 09:32:13;;;;;;;17.58;7.22;;;;;;;;;;5066169;28;20036;-60
2021/12/28 09:34:39;;;;;;;20.67;6.65;;;;;;;;;;5069023;28;20035;-57
2021/12/28 09:37:05;;;;;;;15.50;7.70;;;;;;;;;;5069341;28;20049;-60
2021/12/28 09:39:31;;;;;;;17.95;7.55;;;;;;;;;;5068716;28;20036;-58
2021/12/28 09:41:58;;;;;;;22.40;8.15;;;;;;;;;;5069715;28;20059;-59
2021/12/28 09:44:25;;;;;;;17.30;6.05;;;;;;;;;;5069799;28;20116;-59
2021/12/28 09:46:51;;;;;;;19.08;6.80;;;;;;;;;;5069501;28;20372;-60
2021/12/28 09:49:17;;;;;;;22.75;6.38;;;;;;;;;;5068873;28;20444;-62
2021/12/28 09:51:43;;;;;;;23.80;6.10;;;;;;;;;;5067185;28;20123;-62
2021/12/28 09:54:09;;;;;;;19.17;5.90;;;;;;;;;;5072139;28;20340;-61
2021/12/28 09:56:36;;;;;;;21.50;6.45;;;;;;;;;;5073130;28;20048;-60
2021/12/28 09:59:03;;;;;;;21.75;6.47;;;;;;;;;;5073932;28;20092;-62
2021/12/28 10:01:29;;;;;;;27.17;6.28;;;;;;;;;;5071917;28;20398;-60
2021/12/28 10:03:57;;;;;;;20.77;7.35;;;;;;;;;;5076413;28;20380;-61
2021/12/28 10:06:25;;;;;;;23.00;6.68;;;;;;;;;;5072921;28;20098;-61
2021/12/28 10:09:09;;;;;;;17.67;6.72;;;;;;;;;;5066787;28;20044;-61
2021/12/28 10:11:36;;;;;;;20.15;6.15;;;;;;;;;;5071873;28;20037;-63
2021/12/28 10:14:22;;;;;;;21.33;6.97;;;;;;;;;;5078102;28;20511;-63
2021/12/28 10:16:51;;;;;;;18.77;6.78;;;;;;;;;;5072763;28;20406;-60
2021/12/28 10:19:37;;;;;;;27.45;7.20;;;;;;;;;;5080562;28;20119;-61
2021/12/28 10:22:20;;;;;;;14.98;6.45;;;;;;;;;;5066438;28;20032;-60
2021/12/28 10:24:46;;;;;;;19.15;7.88;;;;;;;;;;5071749;28;20055;-60
2021/12/28 10:27:16;;;;;;;19.10;6.93;;;;;;;;;;5073232;28;20413;-61
2021/12/28 10:29:42;;;;;;;19.42;6.97;;;;;;;;;;5072838;28;20044;-60
2021/12/28 10:32:17;;;;;;;21.20;7.20;;;;;;;;;;5074002;28;20538;-60
2021/12/28 10:34:45;;;;;;;19.50;6.68;;;;;;;;;;5072358;28;20035;-61
2021/12/28 10:37:25;;;;;;;16.50;7.90;;;;;;;;;;5104036;28;20051;-62
2021/12/28 10:39:54;;;;;;;24.48;7.68;;;;;;;;;;5072993;28;20065;-61
2021/12/28 10:42:49;;;;;;;24.35;8.50;;;;;;;;;;5072649;28;20052;-61
2021/12/28 10:45:15;;;;;;;20.17;8.77;;;;;;;;;;5061036;28;20044;-61
2021/12/28 10:47:41;;;;;;;24.10;8.35;;;;;;;;;;5073002;28;21727;-62
2021/12/28 10:50:22;;;;;;;24.73;10.40;;;;;;;;;;5071427;28;20068;-61
2021/12/28 10:52:51;;;;;;;19.38;9.10;;;;;;;;;;5068805;28;20032;-60
2021/12/28 10:55:22;;;;;;;27.05;12.07;;;;;;;;;;5071577;28;20337;-60
2021/12/28 10:57:49;;;;;;;24.77;9.70;;;;;;;;;;5072156;28;20490;-61
2021/12/28 11:00:22;;;;;;;18.35;8.13;;;;;;;;;;5072218;28;20098;-62
2021/12/28 11:02:48;;;;;;;15.90;8.68;;;;;;;;;;5071357;28;20052;-62
2021/12/28 11:05:34;;;;;;;17.17;9.27;;;;;;;;;;5070171;28;20040;-61
2021/12/28 11:08:01;;;;;;;16.17;9.05;;;;;;;;;;5071461;28;20037;-63
2021/12/28 11:10:28;;;;;;;22.00;8.82;;;;;;;;;;5072579;28;20036;-62
2021/12/28 11:12:55;;;;;;;24.35;9.45;;;;;;;;;;5071059;28;21112;-61
2021/12/28 11:15:24;;;;;;;20.08;10.18;;;;;;;;;;5070929;28;20040;-61
2021/12/28 11:17:51;;;;;;;20.20;8.85;;;;;;;;;;5065801;28;20055;-61
2021/12/28 11:20:17;;;;;;;22.48;10.32;;;;;;;;;;5070597;28;20040;-60
2021/12/28 11:23:06;;;;;;;20.77;9.70;;;;;;;;;;5068370;28;20052;-59
2021/12/28 11:25:32;;;;;;;23.55;10.13;;;;;;;;;;5068515;28;20075;-62
2021/12/28 11:28:14;;;;;;;21.77;11.18;;;;;;;;;;5071428;28;20032;-62
2021/12/28 11:30:41;;;;;;;19.08;10.10;;;;;;;;;;5069887;28;20206;-60
2021/12/28 11:33:08;;;;;;;20.27;10.23;;;;;;;;;;5073386;28;20119;-60
2021/12/28 11:35:34;;;;;;;15.63;9.40;;;;;;;;;;5071197;28;20040;-62
2021/12/28 11:38:01;;;;;;;20.63;9.45;;;;;;;;;;5070549;28;20040;-61
2021/12/28 11:40:27;;;;;;;22.27;9.77;;;;;;;;;;5082046;28;20033;-61
2021/12/28 11:42:53;;;;;;;17.60;9.68;;;;;;;;;;5071809;28;20040;-61
2021/12/28 11:45:20;;;;;;;16.58;10.32;;;;;;;;;;5071064;28;20043;-60
2021/12/28 11:47:46;;;;;;;19.02;10.23;;;;;;;;;;5083398;28;20135;-59
2021/12/28 11:50:12;;;;;;;19.80;10.25;;;;;;;;;;5071918;28;20123;-61
2021/12/28 11:52:38;;;;;;;17.20;10.55;;;;;;;;;;5075176;28;20041;-62
2021/12/28 11:55:05;;;;;;;15.95;10.38;;;;;;;;;;5069044;28;20040;-61
2021/12/28 11:57:31;;;;;;;16.85;9.60;;;;;;;;;;5070126;28;20467;-61
2021/12/28 12:00:08;;;;;;;16.05;8.82;;;;;;;;;;5063567;28;20119;-60
2021/12/28 12:02:37;;;;;;;14.93;10.00;;;;;;;;;;5064424;28;20484;-61
2021/12/28 12:05:12;;;;;;;16.42;8.45;;;;;;;;;;5064652;28;20044;-62
2021/12/28 12:07:39;;;;;;;14.15;8.48;;;;;;;;;;5070763;28;20036;-61
2021/12/28 12:10:09;;;;;;;16.85;8.50;;;;;;;;;;5071363;28;20115;-62
2021/12/28 12:12:35;;;;;;;14.38;8.30;;;;;;;;;;5071370;28;20037;-60
2021/12/28 12:15:03;;;;;;;15.43;9.20;;;;;;;;;;5064768;28;20039;-62
2021/12/28 12:17:29;;;;;;;18.52;9.93;;;;;;;;;;5067857;28;20490;-61
2021/12/28 12:19:56;;;;;;;17.83;10.00;;;;;;;;;;5065332;28;20097;-61
2021/12/28 12:22:32;;;;;;;15.98;9.30;;;;;;;;;;5069772;28;20040;-61
2021/12/28 12:24:58;;;;;;;16.67;9.82;;;;;;;;;;5067309;28;20040;-62
2021/12/28 12:27:39;;;;;;;17.83;12.02;;;;;;;;;;5070538;28;20040;-62
2021/12/28 12:30:18;;;;;;;20.10;10.98;;;;;;;;;;5068779;28;20036;-62
2021/12/28 12:33:00;;;;;;;15.73;9.98;;;;;;;;;;5068763;28;20051;-62
2021/12/28 12:35:30;;;;;;;18.45;10.68;;;;;;;;;;5066625;28;20505;-62
2021/12/28 12:37:56;;;;;;;17.98;10.27;;;;;;;;;;5066662;28;20045;-62
2021/12/28 12:40:22;;;;;;;20.67;10.73;;;;;;;;;;5065529;28;20044;-63
2021/12/28 12:43:07;;;;;;;15.23;9.48;;;;;;;;;;5069938;28;20067;-63
2021/12/28 12:45:55;;;;;;;17.70;9.70;;;;;;;;;;5067123;28;20128;-63
2021/12/28 12:48:36;;;;;;;13.10;9.52;;;;;;;;;;5065230;28;20041;-62
2021/12/28 12:51:21;;;;;;;14.60;10.13;;;;;;;;;;5066594;28;20043;-61
2021/12/28 12:53:48;;;;;;;15.55;9.07;;;;;;;;;;5063983;28;20042;-61
2021/12/28 12:56:15;;;;;;;20.00;12.23;;;;;;;;;;5063586;28;20037;-61
2021/12/28 12:58:44;;;;;;;17.80;12.98;;;;;;;;;;5068065;28;20168;-61
2021/12/28 13:01:19;;;;;;;17.05;10.93;;;;;;;;;;5067374;28;20041;-61
2021/12/28 13:03:45;;;;;;;17.80;10.95;;;;;;;;;;5067777;28;20062;-61
2021/12/28 13:06:11;;;;;;;18.05;11.52;;;;;;;;;;5068791;28;20525;-63
2021/12/28 13:08:37;;;;;;;17.55;10.80;;;;;;;;;;5071020;28;20128;-63
2021/12/28 13:11:03;;;;;;;17.48;12.15;;;;;;;;;;5070184;28;20086;-63
2021/12/28 13:13:29;;;;;;;17.08;10.98;;;;;;;;;;5069175;28;20055;-63
2021/12/28 13:15:56;;;;;;;18.67;11.55;;;;;;;;;;5069282;28;20040;-62
2021/12/28 13:18:22;;;;;;;15.10;10.85;;;;;;;;;;5068930;28;20040;-62
2021/12/28 13:20:49;;;;;;;17.38;11.32;;;;;;;;;;5075065;28;20524;-62
2021/12/28 13:23:15;;;;;;;18.88;11.57;;;;;;;;;;5071503;28;20121;-64
2021/12/28 13:25:45;;;;;;;16.67;11.57;;;;;;;;;;5073588;28;20060;-64
2021/12/28 13:28:12;;;;;;;18.63;13.25;;;;;;;;;;5072130;28;20049;-61
2021/12/28 13:30:42;;;;;;;17.15;11.73;;;;;;;;;;5073741;28;20514;-61
2021/12/28 13:33:08;;;;;;;17.23;11.85;;;;;;;;;;5073781;28;20044;-62
2021/12/28 13:35:36;;;;;;;20.25;13.18;;;;;;;;;;5073388;28;20197;-61
2021/12/28 13:38:03;;;;;;;18.23;13.02;;;;;;;;;;5074236;28;20425;-63
2021/12/28 13:40:28;;;;;;;17.65;14.30;;;;;;;;;;5074445;28;20140;-62
2021/12/28 13:43:01;;;;;;;18.00;13.27;;;;;;;;;;5074467;28;20762;-60
2021/12/28 13:45:27;;;;;;;;;;;;;;;;;;5074426;28;20475;-61
2021/12/28 13:47:53;;;;;;;19.30;12.15;;;;;;;;;;5074239;28;19925;-58
2021/12/28 13:50:19;;;;;;;17.52;12.20;;;;;;;;;;5072363;28;20029;-61
2021/12/28 13:52:47;;;;;;;17.40;12.20;;;;;;;;;;5077701;28;20093;-61
2021/12/28 13:55:14;;;;;;;22.75;12.27;;;;;;;;;;5075354;28;20775;-59
2021/12/28 13:57:40;;;;;;;21.88;13.48;;;;;;;;;;5080892;28;20040;-59
2021/12/28 14:00:08;;;;;;;17.08;11.88;;;;;;;;;;5090808;28;20061;-61
2021/12/28 14:02:35;;;;;;;17.13;10.98;;;;;;;;;;5075848;28;20049;-61
2021/12/28 14:05:01;;;;;;;18.55;12.50;;;;;;;;;;5076906;28;20039;-63
2021/12/28 14:07:28;;;;;;;18.42;11.50;;;;;;;;;;5069933;28;20502;-63
2021/12/28 14:09:54;;;;;;;18.30;12.45;;;;;;;;;;5078280;28;20036;-62
2021/12/28 14:12:20;;;;;;;20.25;12.57;;;;;;;;;;5073130;28;20037;-62
2021/12/28 14:14:47;;;;;;;20.58;12.43;;;;;;;;;;5072602;28;20406;-62
2021/12/28 14:17:17;;;;;;;21.02;12.82;;;;;;;;;;5073332;28;20056;-63
2021/12/28 14:19:56;;;;;;;15.73;9.45;;;;;;;;;;5072783;28;20056;-63
2021/12/28 14:22:23;;;;;;;5.60;2.78;;;;;;;;;;5071963;28;20048;-63
2021/12/28 14:24:51;;;;;;;8.20;1.92;;;;;;;;;;5072229;28;20147;-63
2021/12/28 14:27:47;;;;;;;6.53;1.13;;;;;;;;;;5077772;28;20402;-64